createdAt,value
2019-05-26T00:00:13.860Z,10.20
2019-05-26T00:05:21.302Z,7.20
2019-05-26T00:10:32.174Z,8.63
2019-05-26T00:15:37.840Z,10.17
2019-05-26T00:20:43.312Z,12.50
2019-05-26T00:25:48.703Z,10.33
2019-05-26T00:30:55.025Z,7.70
2019-05-26T00:36:00.290Z,7.00
2019-05-26T00:41:05.679Z,9.70
2019-05-26T00:46:11.332Z,8.30
2019-05-26T00:51:16.536Z,8.70
2019-05-26T00:56:23.880Z,8.30
2019-05-26T01:01:29.208Z,8.67
2019-05-26T01:06:34.484Z,10.87
2019-05-26T01:11:40.506Z,7.83
2019-05-26T01:16:45.979Z,9.83
2019-05-26T01:21:51.233Z,9.80
2019-05-26T01:26:59.637Z,6.80
2019-05-26T01:32:05.627Z,10.53
2019-05-26T01:37:10.968Z,8.43
2019-05-26T01:42:17.589Z,9.87
2019-05-26T01:47:25.083Z,11.27
2019-05-26T01:52:31.381Z,8.97
2019-05-26T01:57:38.258Z,16.20
2019-05-26T02:02:43.914Z,7.10
2019-05-26T02:07:49.912Z,9.30
2019-05-26T02:12:56.479Z,10.40
2019-05-26T02:18:03.333Z,7.77
2019-05-26T02:23:10.904Z,8.57
2019-05-26T02:28:16.195Z,9.30
2019-05-26T02:33:21.581Z,11.07
2019-05-26T02:38:26.914Z,11.03
2019-05-26T02:43:32.197Z,9.03
2019-05-26T02:48:37.681Z,8.10
2019-05-26T02:53:42.957Z,10.20
2019-05-26T02:58:49.317Z,11.83
2019-05-26T03:03:55.992Z,9.30
2019-05-26T03:09:21.069Z,9.50
2019-05-26T03:14:12.360Z,8.23
2019-05-26T03:19:20.305Z,12.17
2019-05-26T03:24:29.079Z,9.60
2019-05-26T03:29:36.209Z,11.07
2019-05-26T03:34:43.321Z,10.67
2019-05-26T03:39:48.484Z,12.93
2019-05-26T03:44:54.025Z,9.63
2019-05-26T03:49:59.373Z,10.17
2019-05-26T03:55:05.086Z,10.57
2019-05-26T04:00:11.262Z,9.30
2019-05-26T04:05:16.488Z,8.87
2019-05-26T04:10:21.791Z,11.60
2019-05-26T04:15:27.400Z,9.97
2019-05-26T04:20:32.558Z,9.60
2019-05-26T04:25:37.786Z,10.53
2019-05-26T04:30:43.901Z,10.07
2019-05-26T04:35:50.739Z,13.60
2019-05-26T04:40:57.086Z,10.90
2019-05-26T04:46:02.318Z,10.03
2019-05-26T04:51:07.833Z,12.80
2019-05-26T04:56:13.231Z,9.03
2019-05-26T05:01:19.456Z,9.73
2019-05-26T05:06:27.026Z,11.37
2019-05-26T05:11:32.302Z,7.77
2019-05-26T05:16:38.706Z,9.00
2019-05-26T05:21:43.951Z,10.63
2019-05-26T05:26:49.468Z,7.67
2019-05-26T05:31:54.698Z,7.73
2019-05-26T05:36:59.881Z,5.53
2019-05-26T05:42:05.467Z,6.10
2019-05-26T05:47:10.961Z,5.33
2019-05-26T05:52:16.264Z,5.63
2019-05-26T05:57:21.405Z,6.13
2019-05-26T06:02:27.140Z,5.17
2019-05-26T06:07:32.438Z,4.97
2019-05-26T06:12:37.779Z,5.50
2019-05-26T06:17:44.491Z,6.53
2019-05-26T06:22:49.764Z,4.77
2019-05-26T06:27:54.971Z,4.27
2019-05-26T06:33:00.272Z,4.23
2019-05-26T06:38:05.461Z,6.07
2019-05-26T06:43:11.360Z,6.13
2019-05-26T06:48:16.644Z,4.90
2019-05-26T06:53:21.867Z,4.53
2019-05-26T06:58:27.075Z,5.07
2019-05-26T07:03:32.413Z,4.13
2019-05-26T07:08:37.637Z,4.57
2019-05-26T07:13:42.937Z,5.27
2019-05-26T07:18:48.383Z,6.20
2019-05-26T07:23:54.601Z,4.13
2019-05-26T07:28:59.745Z,4.90
2019-05-26T07:34:06.430Z,6.33
2019-05-26T07:39:11.632Z,4.33
2019-05-26T07:44:16.886Z,6.03
2019-05-26T07:49:22.128Z,4.57
2019-05-26T07:54:27.317Z,3.27
2019-05-26T07:59:32.544Z,3.77
2019-05-26T08:04:47.680Z,6.50
2019-05-26T08:09:53.068Z,6.67
2019-05-26T08:15:00.811Z,3.63
2019-05-26T08:20:07.075Z,5.20
2019-05-26T08:25:14.182Z,3.50
2019-05-26T08:30:19.899Z,3.63
2019-05-26T08:35:27.248Z,4.73
2019-05-26T08:40:32.404Z,6.10
2019-05-26T08:45:37.946Z,4.40
2019-05-26T08:50:43.266Z,3.23
2019-05-26T08:55:48.479Z,4.23
2019-05-26T09:00:53.676Z,4.73
2019-05-26T09:05:59.990Z,3.60
2019-05-26T09:11:05.704Z,4.97
2019-05-26T09:16:10.979Z,3.10
2019-05-26T09:21:16.509Z,4.53
2019-05-26T09:26:22.056Z,3.83
2019-05-26T09:31:27.376Z,3.40
2019-05-26T09:36:32.713Z,5.03
2019-05-26T09:41:38.418Z,4.40
2019-05-26T09:46:44.748Z,3.07
2019-05-26T09:51:51.424Z,4.70
2019-05-26T09:56:57.883Z,3.67
2019-05-26T10:02:03.527Z,5.17
2019-05-26T10:07:12.223Z,4.57
2019-05-26T10:12:16.185Z,3.77
2019-05-26T10:17:23.344Z,3.73
2019-05-26T10:22:30.740Z,4.37
2019-05-26T10:27:36.221Z,4.57
2019-05-26T10:32:41.446Z,4.07
2019-05-26T10:37:46.858Z,3.33
2019-05-26T10:42:52.024Z,4.43
2019-05-26T10:47:58.699Z,5.50
2019-05-26T10:53:04.036Z,4.67
2019-05-26T10:58:09.461Z,3.67
2019-05-26T11:03:14.851Z,4.60
2019-05-26T11:08:20.482Z,6.60
2019-05-26T11:13:26.856Z,3.63
2019-05-26T11:18:32.094Z,5.60
2019-05-26T11:23:37.340Z,3.70
2019-05-26T11:28:42.612Z,5.77
2019-05-26T11:33:47.741Z,2.50
2019-05-26T11:38:52.943Z,3.07
2019-05-26T11:43:58.112Z,3.90
2019-05-26T11:49:03.385Z,4.03
2019-05-26T11:54:08.707Z,2.90
2019-05-26T11:59:13.985Z,2.90
2019-05-26T12:04:19.523Z,1.90
2019-05-26T12:09:25.359Z,2.87
2019-05-26T12:14:34.967Z,5.60
2019-05-26T12:19:37.886Z,3.60
2019-05-26T12:24:44.180Z,2.63
2019-05-26T12:29:49.469Z,4.13
2019-05-26T12:34:54.677Z,3.07
2019-05-26T12:40:00.019Z,6.33
2019-05-26T12:45:06.068Z,3.00
2019-05-26T12:50:11.378Z,4.00
2019-05-26T12:55:16.708Z,3.57
2019-05-26T13:00:22.120Z,4.30
2019-05-26T13:05:27.267Z,3.23
2019-05-26T13:10:32.467Z,2.87
2019-05-26T13:15:37.595Z,5.77
2019-05-26T13:20:42.854Z,4.70
2019-05-26T13:25:48.785Z,3.83
2019-05-26T13:30:54.782Z,4.40
2019-05-26T13:36:01.410Z,2.20
2019-05-26T13:41:09.549Z,2.03
2019-05-26T13:46:17.701Z,3.33
2019-05-26T13:51:22.850Z,6.10
2019-05-26T13:56:28.034Z,2.57
2019-05-26T14:01:34.861Z,3.07
2019-05-26T14:06:40.135Z,3.00
2019-05-26T14:11:45.548Z,2.00
2019-05-26T14:16:53.381Z,2.90
2019-05-26T14:21:58.622Z,2.47
2019-05-26T14:27:05.690Z,1.87
2019-05-26T14:32:12.577Z,2.00
2019-05-26T14:37:18.099Z,4.10
2019-05-26T14:42:23.657Z,4.13
2019-05-26T14:47:29.198Z,2.60
2019-05-26T14:52:34.408Z,1.90
2019-05-26T14:57:39.765Z,1.97
2019-05-26T15:02:45.142Z,2.73
2019-05-26T15:07:51.842Z,3.10
2019-05-26T15:12:57.076Z,3.77
2019-05-26T15:18:02.310Z,2.47
2019-05-26T15:23:07.569Z,2.63
2019-05-26T15:28:14.842Z,2.90
2019-05-26T15:33:20.111Z,3.93
2019-05-26T15:38:25.343Z,2.33
2019-05-26T15:43:30.690Z,2.20
2019-05-26T15:48:36.188Z,1.77
2019-05-26T15:53:43.251Z,1.83
2019-05-26T15:58:48.787Z,3.33
2019-05-26T16:03:54.259Z,1.90
2019-05-26T16:08:59.866Z,2.70
2019-05-26T16:14:06.309Z,5.57
2019-05-26T16:19:11.488Z,3.27
2019-05-26T16:24:16.761Z,3.73
2019-05-26T16:29:22.599Z,2.20
2019-05-26T16:34:27.808Z,2.27
2019-05-26T16:39:36.910Z,7.67
2019-05-26T16:44:40.775Z,2.57
2019-05-26T16:49:46.288Z,2.00
2019-05-26T16:54:51.559Z,3.03
2019-05-26T16:59:57.272Z,2.27
2019-05-26T17:05:02.415Z,4.70
2019-05-26T17:10:15.313Z,3.13
2019-05-26T17:15:21.782Z,1.47
2019-05-26T17:20:27.671Z,1.30
2019-05-26T17:25:32.931Z,3.50
2019-05-26T17:30:38.352Z,2.47
2019-05-26T17:35:43.751Z,3.43
2019-05-26T17:40:49.056Z,5.10
2019-05-26T17:45:54.285Z,1.77
2019-05-26T17:50:59.485Z,4.20
2019-05-26T17:56:04.818Z,2.07
2019-05-26T18:01:09.977Z,1.67
2019-05-26T18:06:15.373Z,5.33
2019-05-26T18:11:20.492Z,2.50
2019-05-26T18:16:25.909Z,1.97
2019-05-26T18:21:31.345Z,2.27
2019-05-26T18:26:36.682Z,5.13
2019-05-26T18:31:45.514Z,2.53
2019-05-26T18:36:51.121Z,3.27
2019-05-26T18:41:56.350Z,2.93
2019-05-26T18:47:01.908Z,1.87
2019-05-26T18:52:07.184Z,1.97
2019-05-26T18:57:13.383Z,2.90
2019-05-26T19:02:18.628Z,2.07
2019-05-26T19:07:23.882Z,2.60
2019-05-26T19:12:29.443Z,3.17
2019-05-26T19:17:34.764Z,2.73
2019-05-26T19:22:39.970Z,4.47
2019-05-26T19:27:45.593Z,4.20
2019-05-26T19:32:51.176Z,2.77
2019-05-26T19:37:56.588Z,4.73
2019-05-26T19:43:01.788Z,2.90
2019-05-26T19:48:07.207Z,2.93
2019-05-26T19:53:12.403Z,15.87
2019-05-26T19:58:17.575Z,22.80
2019-05-26T20:03:23.998Z,23.07
2019-05-26T20:08:29.436Z,7.63
2019-05-26T20:13:35.676Z,18.73
2019-05-26T20:18:41.171Z,6.37
2019-05-26T20:23:46.609Z,8.10
2019-05-26T20:28:53.388Z,3.13
2019-05-26T20:33:59.044Z,15.07
2019-05-26T20:39:06.194Z,13.03
2019-05-26T20:44:11.485Z,2.83
2019-05-26T20:49:16.762Z,2.50
2019-05-26T20:54:21.923Z,2.60
2019-05-26T20:59:27.190Z,9.37
2019-05-26T21:04:32.462Z,14.43
2019-05-26T21:09:41.839Z,5.20
2019-05-26T21:14:47.519Z,3.63
2019-05-26T21:19:53.032Z,2.50
2019-05-26T21:24:58.229Z,2.03
2019-05-26T21:30:03.496Z,3.97
2019-05-26T21:35:09.409Z,3.00
2019-05-26T21:40:15.811Z,3.03
2019-05-26T21:45:21.116Z,2.27
2019-05-26T21:50:26.352Z,5.33
2019-05-26T21:55:31.647Z,2.30
2019-05-26T22:00:41.305Z,2.77
2019-05-26T22:05:46.927Z,2.93
2019-05-26T22:10:52.203Z,3.33
2019-05-26T22:15:57.489Z,4.67
2019-05-26T22:21:02.979Z,4.27
2019-05-26T22:26:08.496Z,3.20
2019-05-26T22:31:13.720Z,2.50
2019-05-26T22:36:19.198Z,3.57
2019-05-26T22:41:24.457Z,3.50
2019-05-26T22:46:29.653Z,3.23
2019-05-26T22:51:35.150Z,3.53
2019-05-26T22:56:40.352Z,5.03
2019-05-26T23:01:45.572Z,2.97
2019-05-26T23:06:50.934Z,3.57
2019-05-26T23:11:56.304Z,3.93
2019-05-26T23:17:01.684Z,5.67
2019-05-26T23:22:06.970Z,3.80
2019-05-26T23:27:12.282Z,4.50
2019-05-26T23:32:17.516Z,3.40
2019-05-26T23:37:23.268Z,2.70
2019-05-26T23:42:28.519Z,2.90
2019-05-26T23:47:33.779Z,3.47
2019-05-26T23:52:39.223Z,3.53
2019-05-26T23:57:44.406Z,3.03
